sensor_id;sensor_type;location;lat;lon;timestamp;temperature;humidity
947;DHT22;460;48.734;9.152;2023-05-02T00:00:49;8.90;99.90
947;DHT22;460;48.734;9.152;2023-05-02T00:03:17;8.90;99.90
947;DHT22;460;48.734;9.152;2023-05-02T00:05:44;8.80;99.90
947;DHT22;460;48.734;9.152;2023-05-02T00:08:11;8.70;99.90
947;DHT22;460;48.734;9.152;2023-05-02T00:10:38;8.60;99.90
947;DHT22;460;48.734;9.152;2023-05-02T00:13:04;8.60;99.90
947;DHT22;460;48.734;9.152;2023-05-02T00:15:31;8.60;99.90
947;DHT22;460;48.734;9.152;2023-05-02T00:17:58;8.50;99.90
947;DHT22;460;48.734;9.152;2023-05-02T00:20:27;8.60;99.90
947;DHT22;460;48.734;9.152;2023-05-02T00:22:54;8.60;99.90
947;DHT22;460;48.734;9.152;2023-05-02T00:25:21;8.60;99.90
947;DHT22;460;48.734;9.152;2023-05-02T00:27:48;8.60;99.90
947;DHT22;460;48.734;9.152;2023-05-02T00:30:15;8.60;99.90
947;DHT22;460;48.734;9.152;2023-05-02T00:32:42;8.60;99.90
947;DHT22;460;48.734;9.152;2023-05-02T00:35:10;8.60;99.90
947;DHT22;460;48.734;9.152;2023-05-02T00:37:41;8.60;99.90
947;DHT22;460;48.734;9.152;2023-05-02T00:40:08;8.50;99.90
947;DHT22;460;48.734;9.152;2023-05-02T00:42:35;8.50;99.90
947;DHT22;460;48.734;9.152;2023-05-02T00:45:02;8.50;99.90
947;DHT22;460;48.734;9.152;2023-05-02T00:47:30;8.50;99.90
947;DHT22;460;48.734;9.152;2023-05-02T00:49:57;8.50;99.90
947;DHT22;460;48.734;9.152;2023-05-02T00:52:25;8.40;99.90
947;DHT22;460;48.734;9.152;2023-05-02T00:54:53;8.40;99.90
947;DHT22;460;48.734;9.152;2023-05-02T00:57:20;8.30;99.90
947;DHT22;460;48.734;9.152;2023-05-02T00:59:47;8.30;99.90
947;DHT22;460;48.734;9.152;2023-05-02T01:02:25;8.30;99.90
947;DHT22;460;48.734;9.152;2023-05-02T01:05:00;8.40;99.90
947;DHT22;460;48.734;9.152;2023-05-02T01:07:50;8.30;99.90
947;DHT22;460;48.734;9.152;2023-05-02T01:10:26;8.40;99.90
947;DHT22;460;48.734;9.152;2023-05-02T01:13:00;8.30;99.90
947;DHT22;460;48.734;9.152;2023-05-02T01:15:30;8.40;99.90
947;DHT22;460;48.734;9.152;2023-05-02T01:18:00;8.30;99.90
947;DHT22;460;48.734;9.152;2023-05-02T01:20:30;8.30;99.90
947;DHT22;460;48.734;9.152;2023-05-02T01:23:03;8.30;99.90
947;DHT22;460;48.734;9.152;2023-05-02T01:25:58;8.30;99.90
947;DHT22;460;48.734;9.152;2023-05-02T01:28:35;8.30;99.90
947;DHT22;460;48.734;9.152;2023-05-02T01:31:06;8.30;99.90
947;DHT22;460;48.734;9.152;2023-05-02T01:33:34;8.20;99.90
947;DHT22;460;48.734;9.152;2023-05-02T01:36:02;8.30;99.90
947;DHT22;460;48.734;9.152;2023-05-02T01:38:32;8.30;99.90
947;DHT22;460;48.734;9.152;2023-05-02T01:41:01;8.30;99.90
947;DHT22;460;48.734;9.152;2023-05-02T01:43:31;8.30;99.90
947;DHT22;460;48.734;9.152;2023-05-02T01:46:02;8.30;99.90
947;DHT22;460;48.734;9.152;2023-05-02T01:48:33;8.30;99.90
947;DHT22;460;48.734;9.152;2023-05-02T01:51:03;8.30;99.90
947;DHT22;460;48.734;9.152;2023-05-02T01:53:33;8.20;99.90
947;DHT22;460;48.734;9.152;2023-05-02T01:56:00;8.20;99.90
947;DHT22;460;48.734;9.152;2023-05-02T01:58:29;8.20;99.90
947;DHT22;460;48.734;9.152;2023-05-02T02:01:00;8.20;99.90
947;DHT22;460;48.734;9.152;2023-05-02T02:03:29;8.20;99.90
947;DHT22;460;48.734;9.152;2023-05-02T02:06:00;8.20;99.90
947;DHT22;460;48.734;9.152;2023-05-02T02:08:27;8.10;99.90
947;DHT22;460;48.734;9.152;2023-05-02T02:10:58;8.00;99.90
947;DHT22;460;48.734;9.152;2023-05-02T02:13:30;8.00;99.90
947;DHT22;460;48.734;9.152;2023-05-02T02:15:59;7.90;99.90
947;DHT22;460;48.734;9.152;2023-05-02T02:18:28;7.90;99.90
947;DHT22;460;48.734;9.152;2023-05-02T02:20:59;7.90;99.90
947;DHT22;460;48.734;9.152;2023-05-02T02:23:28;7.90;99.90
947;DHT22;460;48.734;9.152;2023-05-02T02:25:56;7.80;99.90
947;DHT22;460;48.734;9.152;2023-05-02T02:28:24;7.70;99.90
947;DHT22;460;48.734;9.152;2023-05-02T02:30:51;7.70;99.90
947;DHT22;460;48.734;9.152;2023-05-02T02:33:19;7.70;99.90
947;DHT22;460;48.734;9.152;2023-05-02T02:35:52;7.70;99.90
947;DHT22;460;48.734;9.152;2023-05-02T02:38:31;7.80;99.90
947;DHT22;460;48.734;9.152;2023-05-02T02:41:08;7.70;99.90
947;DHT22;460;48.734;9.152;2023-05-02T02:43:46;7.70;99.90
947;DHT22;460;48.734;9.152;2023-05-02T02:46:24;7.80;99.90
947;DHT22;460;48.734;9.152;2023-05-02T02:48:59;7.70;99.90
947;DHT22;460;48.734;9.152;2023-05-02T02:51:38;7.80;99.90
947;DHT22;460;48.734;9.152;2023-05-02T02:54:16;7.80;99.90
947;DHT22;460;48.734;9.152;2023-05-02T02:56:53;7.70;99.90
947;DHT22;460;48.734;9.152;2023-05-02T02:59:27;7.70;99.90
947;DHT22;460;48.734;9.152;2023-05-02T03:02:06;7.70;99.90
947;DHT22;460;48.734;9.152;2023-05-02T03:04:37;7.70;99.90
947;DHT22;460;48.734;9.152;2023-05-02T03:07:05;7.50;99.90
947;DHT22;460;48.734;9.152;2023-05-02T03:09:41;7.60;99.90
947;DHT22;460;48.734;9.152;2023-05-02T03:12:09;7.60;99.90
947;DHT22;460;48.734;9.152;2023-05-02T03:14:37;7.60;99.90
947;DHT22;460;48.734;9.152;2023-05-02T03:17:04;7.60;99.90
947;DHT22;460;48.734;9.152;2023-05-02T03:19:33;7.70;99.90
947;DHT22;460;48.734;9.152;2023-05-02T03:21:59;7.70;99.90
947;DHT22;460;48.734;9.152;2023-05-02T03:24:26;7.70;99.90
947;DHT22;460;48.734;9.152;2023-05-02T03:26:55;7.80;99.90
947;DHT22;460;48.734;9.152;2023-05-02T03:29:23;7.80;99.90
947;DHT22;460;48.734;9.152;2023-05-02T03:31:50;7.90;99.90
947;DHT22;460;48.734;9.152;2023-05-02T03:34:17;8.00;99.90
947;DHT22;460;48.734;9.152;2023-05-02T03:36:46;8.10;99.90
947;DHT22;460;48.734;9.152;2023-05-02T03:39:13;8.10;99.90
947;DHT22;460;48.734;9.152;2023-05-02T03:41:40;8.10;99.90
947;DHT22;460;48.734;9.152;2023-05-02T03:44:09;8.20;99.90
947;DHT22;460;48.734;9.152;2023-05-02T03:46:36;8.20;99.90
947;DHT22;460;48.734;9.152;2023-05-02T03:49:03;8.20;99.90
947;DHT22;460;48.734;9.152;2023-05-02T03:51:30;8.30;99.90
947;DHT22;460;48.734;9.152;2023-05-02T03:53:59;8.30;99.90
947;DHT22;460;48.734;9.152;2023-05-02T03:56:26;8.30;99.90
947;DHT22;460;48.734;9.152;2023-05-02T03:58:53;8.30;99.90
947;DHT22;460;48.734;9.152;2023-05-02T04:01:21;8.30;99.90
947;DHT22;460;48.734;9.152;2023-05-02T04:03:48;8.40;99.90
947;DHT22;460;48.734;9.152;2023-05-02T04:06:16;8.40;99.90
947;DHT22;460;48.734;9.152;2023-05-02T04:08:42;8.50;99.90
947;DHT22;460;48.734;9.152;2023-05-02T04:11:09;8.50;99.90
947;DHT22;460;48.734;9.152;2023-05-02T04:13:36;8.60;99.90
947;DHT22;460;48.734;9.152;2023-05-02T04:16:03;8.60;99.90
947;DHT22;460;48.734;9.152;2023-05-02T04:18:31;8.60;99.90
947;DHT22;460;48.734;9.152;2023-05-02T04:20:58;8.60;99.90
947;DHT22;460;48.734;9.152;2023-05-02T04:23:25;8.70;99.90
947;DHT22;460;48.734;9.152;2023-05-02T04:25:52;8.70;99.90
947;DHT22;460;48.734;9.152;2023-05-02T04:28:20;8.80;99.90
947;DHT22;460;48.734;9.152;2023-05-02T04:30:47;8.80;99.90
947;DHT22;460;48.734;9.152;2023-05-02T04:33:14;8.80;99.90
947;DHT22;460;48.734;9.152;2023-05-02T04:35:42;8.80;99.90
947;DHT22;460;48.734;9.152;2023-05-02T04:38:09;8.80;99.90
947;DHT22;460;48.734;9.152;2023-05-02T04:40:36;8.80;99.90
947;DHT22;460;48.734;9.152;2023-05-02T04:43:03;8.90;99.90
947;DHT22;460;48.734;9.152;2023-05-02T04:45:29;8.90;99.90
947;DHT22;460;48.734;9.152;2023-05-02T04:47:56;8.90;99.90
947;DHT22;460;48.734;9.152;2023-05-02T04:50:23;9.00;99.90
947;DHT22;460;48.734;9.152;2023-05-02T04:52:51;9.00;99.90
947;DHT22;460;48.734;9.152;2023-05-02T04:55:18;9.00;99.90
947;DHT22;460;48.734;9.152;2023-05-02T04:57:45;9.00;99.90
947;DHT22;460;48.734;9.152;2023-05-02T05:00:12;9.00;99.90
947;DHT22;460;48.734;9.152;2023-05-02T05:02:40;9.00;99.90
947;DHT22;460;48.734;9.152;2023-05-02T05:05:07;9.00;99.90
947;DHT22;460;48.734;9.152;2023-05-02T05:07:34;9.00;99.90
947;DHT22;460;48.734;9.152;2023-05-02T05:10:05;9.00;99.90
947;DHT22;460;48.734;9.152;2023-05-02T05:12:32;9.00;99.90
947;DHT22;460;48.734;9.152;2023-05-02T05:14:59;9.00;99.90
947;DHT22;460;48.734;9.152;2023-05-02T05:17:26;9.00;99.90
947;DHT22;460;48.734;9.152;2023-05-02T05:19:53;9.00;99.90
947;DHT22;460;48.734;9.152;2023-05-02T05:22:19;9.00;99.90
947;DHT22;460;48.734;9.152;2023-05-02T05:24:53;9.10;99.90
947;DHT22;460;48.734;9.152;2023-05-02T05:27:21;9.10;99.90
947;DHT22;460;48.734;9.152;2023-05-02T05:29:48;9.10;99.90
947;DHT22;460;48.734;9.152;2023-05-02T05:32:14;9.20;99.90
947;DHT22;460;48.734;9.152;2023-05-02T05:34:41;9.20;99.90
947;DHT22;460;48.734;9.152;2023-05-02T05:37:08;9.20;99.90
947;DHT22;460;48.734;9.152;2023-05-02T05:39:35;9.20;99.90
947;DHT22;460;48.734;9.152;2023-05-02T05:42:02;9.30;99.90
947;DHT22;460;48.734;9.152;2023-05-02T05:44:31;9.40;99.90
947;DHT22;460;48.734;9.152;2023-05-02T05:46:58;9.40;99.90
947;DHT22;460;48.734;9.152;2023-05-02T05:49:25;9.50;99.90
947;DHT22;460;48.734;9.152;2023-05-02T05:51:52;9.60;99.90
947;DHT22;460;48.734;9.152;2023-05-02T05:54:18;9.50;99.90
947;DHT22;460;48.734;9.152;2023-05-02T05:56:45;9.60;99.90
947;DHT22;460;48.734;9.152;2023-05-02T05:59:12;9.60;99.90
947;DHT22;460;48.734;9.152;2023-05-02T06:01:41;9.60;99.90
947;DHT22;460;48.734;9.152;2023-05-02T06:04:08;9.70;99.90
947;DHT22;460;48.734;9.152;2023-05-02T06:06:34;9.70;99.90
947;DHT22;460;48.734;9.152;2023-05-02T06:09:01;9.70;99.90
947;DHT22;460;48.734;9.152;2023-05-02T06:11:28;9.70;99.90
947;DHT22;460;48.734;9.152;2023-05-02T06:13:55;9.70;99.90
947;DHT22;460;48.734;9.152;2023-05-02T06:16:22;9.80;99.90
947;DHT22;460;48.734;9.152;2023-05-02T06:18:50;9.80;99.90
947;DHT22;460;48.734;9.152;2023-05-02T06:21:18;9.80;99.90
947;DHT22;460;48.734;9.152;2023-05-02T06:23:45;9.80;99.90
947;DHT22;460;48.734;9.152;2023-05-02T06:26:12;9.90;99.90
947;DHT22;460;48.734;9.152;2023-05-02T06:28:38;9.90;99.90
947;DHT22;460;48.734;9.152;2023-05-02T06:31:05;9.90;99.90
947;DHT22;460;48.734;9.152;2023-05-02T06:33:32;9.90;99.90
947;DHT22;460;48.734;9.152;2023-05-02T06:36:01;9.90;99.90
947;DHT22;460;48.734;9.152;2023-05-02T06:38:28;9.90;99.90
947;DHT22;460;48.734;9.152;2023-05-02T06:40:55;10.00;99.90
947;DHT22;460;48.734;9.152;2023-05-02T06:43:22;10.10;99.90
947;DHT22;460;48.734;9.152;2023-05-02T06:45:51;10.20;99.90
947;DHT22;460;48.734;9.152;2023-05-02T06:48:18;10.20;99.90
947;DHT22;460;48.734;9.152;2023-05-02T06:50:45;10.30;99.90
947;DHT22;460;48.734;9.152;2023-05-02T06:53:14;10.40;99.90
947;DHT22;460;48.734;9.152;2023-05-02T06:55:40;10.30;99.90
947;DHT22;460;48.734;9.152;2023-05-02T06:58:07;10.40;99.90
947;DHT22;460;48.734;9.152;2023-05-02T07:00:34;10.40;99.90
947;DHT22;460;48.734;9.152;2023-05-02T07:03:01;10.50;99.90
947;DHT22;460;48.734;9.152;2023-05-02T07:05:28;10.50;99.90
947;DHT22;460;48.734;9.152;2023-05-02T07:07:55;10.60;99.90
947;DHT22;460;48.734;9.152;2023-05-02T07:10:23;10.60;99.90
947;DHT22;460;48.734;9.152;2023-05-02T07:12:50;10.60;99.90
947;DHT22;460;48.734;9.152;2023-05-02T07:15:17;10.60;99.90
947;DHT22;460;48.734;9.152;2023-05-02T07:17:43;10.50;99.90
947;DHT22;460;48.734;9.152;2023-05-02T07:20:12;10.50;99.90
947;DHT22;460;48.734;9.152;2023-05-02T07:22:40;10.50;99.90
947;DHT22;460;48.734;9.152;2023-05-02T07:25:07;10.60;99.90
947;DHT22;460;48.734;9.152;2023-05-02T07:27:35;10.60;99.90
947;DHT22;460;48.734;9.152;2023-05-02T07:30:03;10.60;99.90
947;DHT22;460;48.734;9.152;2023-05-02T07:32:30;10.50;99.90
947;DHT22;460;48.734;9.152;2023-05-02T07:34:57;10.60;99.90
947;DHT22;460;48.734;9.152;2023-05-02T07:37:24;10.60;99.90
947;DHT22;460;48.734;9.152;2023-05-02T07:39:50;10.60;99.90
947;DHT22;460;48.734;9.152;2023-05-02T07:42:17;10.70;99.90
947;DHT22;460;48.734;9.152;2023-05-02T07:44:45;10.80;99.90
947;DHT22;460;48.734;9.152;2023-05-02T07:47:12;10.70;99.90
947;DHT22;460;48.734;9.152;2023-05-02T07:49:39;10.70;99.90
947;DHT22;460;48.734;9.152;2023-05-02T07:52:05;10.80;99.90
947;DHT22;460;48.734;9.152;2023-05-02T07:54:32;10.90;99.90
947;DHT22;460;48.734;9.152;2023-05-02T07:57:00;10.90;99.90
947;DHT22;460;48.734;9.152;2023-05-02T07:59:29;11.00;99.90
947;DHT22;460;48.734;9.152;2023-05-02T08:01:57;11.10;99.90
947;DHT22;460;48.734;9.152;2023-05-02T08:04:24;11.20;99.90
947;DHT22;460;48.734;9.152;2023-05-02T08:06:51;11.30;99.90
947;DHT22;460;48.734;9.152;2023-05-02T08:09:18;11.30;99.90
947;DHT22;460;48.734;9.152;2023-05-02T08:11:44;11.40;99.90
947;DHT22;460;48.734;9.152;2023-05-02T08:14:11;11.50;99.90
947;DHT22;460;48.734;9.152;2023-05-02T08:16:38;11.50;99.90
947;DHT22;460;48.734;9.152;2023-05-02T08:19:06;11.50;99.90
947;DHT22;460;48.734;9.152;2023-05-02T08:21:33;11.40;99.90
947;DHT22;460;48.734;9.152;2023-05-02T08:24:00;11.50;99.90
947;DHT22;460;48.734;9.152;2023-05-02T08:26:27;11.50;99.90
947;DHT22;460;48.734;9.152;2023-05-02T08:28:54;11.50;99.90
947;DHT22;460;48.734;9.152;2023-05-02T08:31:21;11.60;99.90
947;DHT22;460;48.734;9.152;2023-05-02T08:33:48;11.60;99.90
947;DHT22;460;48.734;9.152;2023-05-02T08:36:17;11.60;99.90
947;DHT22;460;48.734;9.152;2023-05-02T08:38:44;11.60;99.90
947;DHT22;460;48.734;9.152;2023-05-02T08:41:13;11.60;99.90
947;DHT22;460;48.734;9.152;2023-05-02T08:43:40;11.70;99.90
947;DHT22;460;48.734;9.152;2023-05-02T08:46:08;11.90;99.90
947;DHT22;460;48.734;9.152;2023-05-02T08:48:36;11.90;99.90
947;DHT22;460;48.734;9.152;2023-05-02T08:51:03;12.10;99.90
947;DHT22;460;48.734;9.152;2023-05-02T08:53:33;12.30;99.90
947;DHT22;460;48.734;9.152;2023-05-02T08:56:00;12.40;99.90
947;DHT22;460;48.734;9.152;2023-05-02T08:58:27;12.40;99.90
947;DHT22;460;48.734;9.152;2023-05-02T09:00:56;12.40;99.90
947;DHT22;460;48.734;9.152;2023-05-02T09:03:29;12.50;99.90
947;DHT22;460;48.734;9.152;2023-05-02T09:06:03;12.60;99.90
947;DHT22;460;48.734;9.152;2023-05-02T09:08:32;12.90;99.90
947;DHT22;460;48.734;9.152;2023-05-02T09:10:59;13.10;99.90
947;DHT22;460;48.734;9.152;2023-05-02T09:13:33;13.20;99.90
947;DHT22;460;48.734;9.152;2023-05-02T09:16:01;13.30;99.90
947;DHT22;460;48.734;9.152;2023-05-02T09:18:31;13.40;99.90
947;DHT22;460;48.734;9.152;2023-05-02T09:20:59;13.50;99.90
947;DHT22;460;48.734;9.152;2023-05-02T09:23:38;13.60;99.90
947;DHT22;460;48.734;9.152;2023-05-02T09:26:14;13.80;99.90
947;DHT22;460;48.734;9.152;2023-05-02T09:28:42;13.60;99.90
947;DHT22;460;48.734;9.152;2023-05-02T09:31:11;13.70;99.90
947;DHT22;460;48.734;9.152;2023-05-02T09:33:38;13.90;99.90
947;DHT22;460;48.734;9.152;2023-05-02T09:36:07;13.90;99.90
947;DHT22;460;48.734;9.152;2023-05-02T09:38:34;13.90;99.90
947;DHT22;460;48.734;9.152;2023-05-02T09:41:03;13.80;99.90
947;DHT22;460;48.734;9.152;2023-05-02T09:43:30;13.60;99.90
947;DHT22;460;48.734;9.152;2023-05-02T09:45:58;13.70;99.90
947;DHT22;460;48.734;9.152;2023-05-02T09:48:26;13.60;99.90
947;DHT22;460;48.734;9.152;2023-05-02T09:50:53;13.70;99.90
947;DHT22;460;48.734;9.152;2023-05-02T09:53:20;13.50;99.90
947;DHT22;460;48.734;9.152;2023-05-02T09:55:47;13.40;99.90
947;DHT22;460;48.734;9.152;2023-05-02T09:58:22;13.50;99.90
947;DHT22;460;48.734;9.152;2023-05-02T10:00:50;13.60;99.90
947;DHT22;460;48.734;9.152;2023-05-02T10:03:17;13.80;99.90
947;DHT22;460;48.734;9.152;2023-05-02T10:05:45;13.80;99.90
947;DHT22;460;48.734;9.152;2023-05-02T10:08:13;14.20;99.90
947;DHT22;460;48.734;9.152;2023-05-02T10:10:41;14.50;99.70
947;DHT22;460;48.734;9.152;2023-05-02T10:13:10;15.00;99.90
947;DHT22;460;48.734;9.152;2023-05-02T10:15:42;15.40;99.20
947;DHT22;460;48.734;9.152;2023-05-02T10:18:19;15.40;98.00
947;DHT22;460;48.734;9.152;2023-05-02T10:20:55;15.50;98.10
947;DHT22;460;48.734;9.152;2023-05-02T10:23:25;14.80;97.70
947;DHT22;460;48.734;9.152;2023-05-02T10:25:52;14.80;97.80
947;DHT22;460;48.734;9.152;2023-05-02T10:28:19;14.60;98.30
947;DHT22;460;48.734;9.152;2023-05-02T10:30:49;14.50;98.20
947;DHT22;460;48.734;9.152;2023-05-02T10:33:16;14.50;97.50
947;DHT22;460;48.734;9.152;2023-05-02T10:35:45;14.70;98.20
947;DHT22;460;48.734;9.152;2023-05-02T10:38:13;14.80;98.10
947;DHT22;460;48.734;9.152;2023-05-02T10:40:48;15.10;98.00
947;DHT22;460;48.734;9.152;2023-05-02T10:43:23;15.60;97.40
947;DHT22;460;48.734;9.152;2023-05-02T10:45:53;16.10;97.00
947;DHT22;460;48.734;9.152;2023-05-02T10:48:21;16.50;95.70
947;DHT22;460;48.734;9.152;2023-05-02T10:50:50;16.70;95.00
947;DHT22;460;48.734;9.152;2023-05-02T10:53:30;16.80;93.80
947;DHT22;460;48.734;9.152;2023-05-02T10:56:15;17.10;94.00
947;DHT22;460;48.734;9.152;2023-05-02T10:58:43;16.50;90.10
947;DHT22;460;48.734;9.152;2023-05-02T11:01:37;16.80;92.00
947;DHT22;460;48.734;9.152;2023-05-02T11:04:10;16.60;91.50
947;DHT22;460;48.734;9.152;2023-05-02T11:09:48;16.40;92.10
947;DHT22;460;48.734;9.152;2023-05-02T11:15:12;16.70;92.60
947;DHT22;460;48.734;9.152;2023-05-02T11:17:59;16.80;91.50
947;DHT22;460;48.734;9.152;2023-05-02T11:20:26;17.20;91.20
947;DHT22;460;48.734;9.152;2023-05-02T11:22:58;17.20;90.20
947;DHT22;460;48.734;9.152;2023-05-02T11:25:33;16.70;90.80
947;DHT22;460;48.734;9.152;2023-05-02T11:28:00;16.60;91.10
947;DHT22;460;48.734;9.152;2023-05-02T11:30:37;16.60;91.80
947;DHT22;460;48.734;9.152;2023-05-02T11:33:18;16.30;92.10
947;DHT22;460;48.734;9.152;2023-05-02T11:35:48;16.00;91.00
947;DHT22;460;48.734;9.152;2023-05-02T11:38:24;16.00;92.10
947;DHT22;460;48.734;9.152;2023-05-02T11:40:56;15.90;91.50
947;DHT22;460;48.734;9.152;2023-05-02T11:43:24;16.00;92.10
947;DHT22;460;48.734;9.152;2023-05-02T11:45:52;16.30;91.00
947;DHT22;460;48.734;9.152;2023-05-02T11:48:21;16.40;89.00
947;DHT22;460;48.734;9.152;2023-05-02T11:50:53;16.70;90.40
947;DHT22;460;48.734;9.152;2023-05-02T11:53:23;17.50;91.30
947;DHT22;460;48.734;9.152;2023-05-02T11:55:51;17.80;90.80
947;DHT22;460;48.734;9.152;2023-05-02T11:58:20;18.70;91.00
947;DHT22;460;48.734;9.152;2023-05-02T12:00:48;20.00;87.40
947;DHT22;460;48.734;9.152;2023-05-02T12:03:21;21.20;84.10
947;DHT22;460;48.734;9.152;2023-05-02T12:05:48;22.40;81.10
947;DHT22;460;48.734;9.152;2023-05-02T12:08:20;23.00;75.10
947;DHT22;460;48.734;9.152;2023-05-02T12:10:48;22.60;72.60
947;DHT22;460;48.734;9.152;2023-05-02T12:13:16;21.90;75.30
947;DHT22;460;48.734;9.152;2023-05-02T12:15:43;21.20;74.10
947;DHT22;460;48.734;9.152;2023-05-02T12:18:12;19.80;76.80
947;DHT22;460;48.734;9.152;2023-05-02T12:20:41;18.90;78.40
947;DHT22;460;48.734;9.152;2023-05-02T12:23:08;18.60;80.60
947;DHT22;460;48.734;9.152;2023-05-02T12:25:39;18.10;81.80
947;DHT22;460;48.734;9.152;2023-05-02T12:28:06;17.50;81.30
947;DHT22;460;48.734;9.152;2023-05-02T12:30:34;17.60;84.60
947;DHT22;460;48.734;9.152;2023-05-02T12:33:03;17.70;84.20
947;DHT22;460;48.734;9.152;2023-05-02T12:35:31;19.30;85.70
947;DHT22;460;48.734;9.152;2023-05-02T12:38:11;20.50;78.60
947;DHT22;460;48.734;9.152;2023-05-02T12:40:45;21.60;77.00
947;DHT22;460;48.734;9.152;2023-05-02T12:43:12;21.90;72.80
947;DHT22;460;48.734;9.152;2023-05-02T12:45:39;22.40;73.50
947;DHT22;460;48.734;9.152;2023-05-02T12:48:26;23.00;70.40
947;DHT22;460;48.734;9.152;2023-05-02T12:50:54;22.90;68.30
947;DHT22;460;48.734;9.152;2023-05-02T12:53:42;23.60;70.90
947;DHT22;460;48.734;9.152;2023-05-02T12:56:10;24.80;68.30
947;DHT22;460;48.734;9.152;2023-05-02T12:58:42;25.10;64.00
947;DHT22;460;48.734;9.152;2023-05-02T13:01:09;25.80;64.80
947;DHT22;460;48.734;9.152;2023-05-02T13:03:36;26.00;61.50
947;DHT22;460;48.734;9.152;2023-05-02T13:06:03;26.10;58.60
947;DHT22;460;48.734;9.152;2023-05-02T13:08:31;24.90;57.90
947;DHT22;460;48.734;9.152;2023-05-02T13:11:00;23.70;61.40
947;DHT22;460;48.734;9.152;2023-05-02T13:13:27;22.00;64.60
947;DHT22;460;48.734;9.152;2023-05-02T13:15:54;22.10;68.70
947;DHT22;460;48.734;9.152;2023-05-02T13:18:21;22.10;63.10
947;DHT22;460;48.734;9.152;2023-05-02T13:20:48;22.30;65.30
947;DHT22;460;48.734;9.152;2023-05-02T13:23:15;23.00;63.60
947;DHT22;460;48.734;9.152;2023-05-02T13:25:42;23.00;61.50
947;DHT22;460;48.734;9.152;2023-05-02T13:28:10;22.80;64.60
947;DHT22;460;48.734;9.152;2023-05-02T13:30:37;21.70;60.80
947;DHT22;460;48.734;9.152;2023-05-02T13:33:03;20.60;64.60
947;DHT22;460;48.734;9.152;2023-05-02T13:35:30;20.30;64.00
947;DHT22;460;48.734;9.152;2023-05-02T13:37:57;20.10;66.50
947;DHT22;460;48.734;9.152;2023-05-02T13:40:24;20.20;70.40
947;DHT22;460;48.734;9.152;2023-05-02T13:42:51;21.10;68.30
947;DHT22;460;48.734;9.152;2023-05-02T13:45:19;21.40;66.50
947;DHT22;460;48.734;9.152;2023-05-02T13:47:46;21.30;69.10
947;DHT22;460;48.734;9.152;2023-05-02T13:50:13;21.40;65.70
947;DHT22;460;48.734;9.152;2023-05-02T13:52:40;20.60;66.40
947;DHT22;460;48.734;9.152;2023-05-02T13:55:07;21.40;69.40
947;DHT22;460;48.734;9.152;2023-05-02T13:57:34;22.90;64.10
947;DHT22;460;48.734;9.152;2023-05-02T14:00:01;21.70;61.80
947;DHT22;460;48.734;9.152;2023-05-02T14:02:30;20.20;64.00
947;DHT22;460;48.734;9.152;2023-05-02T14:04:56;19.40;66.50
947;DHT22;460;48.734;9.152;2023-05-02T14:07:23;18.60;65.70
947;DHT22;460;48.734;9.152;2023-05-02T14:09:50;18.50;68.40
947;DHT22;460;48.734;9.152;2023-05-02T14:12:17;19.30;66.90
947;DHT22;460;48.734;9.152;2023-05-02T14:14:43;19.60;68.50
947;DHT22;460;48.734;9.152;2023-05-02T14:17:10;21.00;67.60
947;DHT22;460;48.734;9.152;2023-05-02T14:19:38;21.30;61.70
947;DHT22;460;48.734;9.152;2023-05-02T14:22:06;21.90;63.80
947;DHT22;460;48.734;9.152;2023-05-02T14:24:32;21.90;62.20
947;DHT22;460;48.734;9.152;2023-05-02T14:26:59;22.60;62.70
947;DHT22;460;48.734;9.152;2023-05-02T14:29:26;22.90;60.90
947;DHT22;460;48.734;9.152;2023-05-02T14:31:53;22.70;58.60
947;DHT22;460;48.734;9.152;2023-05-02T14:34:20;22.00;58.00
947;DHT22;460;48.734;9.152;2023-05-02T14:36:52;21.80;58.30
947;DHT22;460;48.734;9.152;2023-05-02T14:39:19;21.40;59.40
947;DHT22;460;48.734;9.152;2023-05-02T14:41:46;20.80;62.90
947;DHT22;460;48.734;9.152;2023-05-02T14:44:12;20.60;61.80
947;DHT22;460;48.734;9.152;2023-05-02T14:46:39;21.30;63.90
947;DHT22;460;48.734;9.152;2023-05-02T14:49:06;21.50;62.40
947;DHT22;460;48.734;9.152;2023-05-02T14:51:33;20.20;62.10
947;DHT22;460;48.734;9.152;2023-05-02T14:54:03;19.30;65.20
947;DHT22;460;48.734;9.152;2023-05-02T14:56:31;18.50;63.50
947;DHT22;460;48.734;9.152;2023-05-02T14:58:57;18.50;63.30
947;DHT22;460;48.734;9.152;2023-05-02T15:01:24;18.70;66.40
947;DHT22;460;48.734;9.152;2023-05-02T15:03:51;18.70;66.90
947;DHT22;460;48.734;9.152;2023-05-02T15:06:18;18.70;67.80
947;DHT22;460;48.734;9.152;2023-05-02T15:08:46;18.70;70.20
947;DHT22;460;48.734;9.152;2023-05-02T15:11:16;18.50;70.10
947;DHT22;460;48.734;9.152;2023-05-02T15:13:42;18.30;67.90
947;DHT22;460;48.734;9.152;2023-05-02T15:16:09;17.90;66.20
947;DHT22;460;48.734;9.152;2023-05-02T15:18:37;17.30;67.00
947;DHT22;460;48.734;9.152;2023-05-02T15:21:04;16.90;68.40
947;DHT22;460;48.734;9.152;2023-05-02T15:23:31;16.80;69.70
947;DHT22;460;48.734;9.152;2023-05-02T15:25:57;16.80;71.50
947;DHT22;460;48.734;9.152;2023-05-02T15:28:26;16.60;69.70
947;DHT22;460;48.734;9.152;2023-05-02T15:30:52;16.70;70.20
947;DHT22;460;48.734;9.152;2023-05-02T15:33:19;16.50;70.40
947;DHT22;460;48.734;9.152;2023-05-02T15:35:52;16.50;68.80
947;DHT22;460;48.734;9.152;2023-05-02T15:38:19;16.60;69.70
947;DHT22;460;48.734;9.152;2023-05-02T15:40:52;16.90;72.00
947;DHT22;460;48.734;9.152;2023-05-02T15:43:19;17.20;71.00
947;DHT22;460;48.734;9.152;2023-05-02T15:45:50;17.40;71.10
947;DHT22;460;48.734;9.152;2023-05-02T15:48:18;17.50;71.00
947;DHT22;460;48.734;9.152;2023-05-02T15:50:45;17.60;72.70
947;DHT22;460;48.734;9.152;2023-05-02T15:53:12;17.60;71.10
947;DHT22;460;48.734;9.152;2023-05-02T15:55:40;18.00;69.40
947;DHT22;460;48.734;9.152;2023-05-02T15:58:07;18.10;70.90
947;DHT22;460;48.734;9.152;2023-05-02T16:00:34;17.90;67.20
947;DHT22;460;48.734;9.152;2023-05-02T16:03:03;18.00;70.20
947;DHT22;460;48.734;9.152;2023-05-02T16:05:31;18.50;69.10
947;DHT22;460;48.734;9.152;2023-05-02T16:07:57;18.10;68.40
947;DHT22;460;48.734;9.152;2023-05-02T16:10:24;18.30;68.40
947;DHT22;460;48.734;9.152;2023-05-02T16:12:51;18.50;68.60
947;DHT22;460;48.734;9.152;2023-05-02T16:15:18;18.50;67.40
947;DHT22;460;48.734;9.152;2023-05-02T16:17:45;18.40;67.30
947;DHT22;460;48.734;9.152;2023-05-02T16:20:15;18.40;66.30
947;DHT22;460;48.734;9.152;2023-05-02T16:22:42;18.40;65.50
947;DHT22;460;48.734;9.152;2023-05-02T16:25:10;18.30;66.70
947;DHT22;460;48.734;9.152;2023-05-02T16:27:36;17.80;66.70
947;DHT22;460;48.734;9.152;2023-05-02T16:30:04;17.60;67.50
947;DHT22;460;48.734;9.152;2023-05-02T16:32:32;17.50;67.90
947;DHT22;460;48.734;9.152;2023-05-02T16:34:59;17.40;68.50
947;DHT22;460;48.734;9.152;2023-05-02T16:37:27;17.00;65.50
947;DHT22;460;48.734;9.152;2023-05-02T16:39:54;16.80;66.60
947;DHT22;460;48.734;9.152;2023-05-02T16:42:21;16.80;65.90
947;DHT22;460;48.734;9.152;2023-05-02T16:44:48;16.60;63.50
947;DHT22;460;48.734;9.152;2023-05-02T16:47:15;16.40;65.40
947;DHT22;460;48.734;9.152;2023-05-02T16:49:42;16.40;66.60
947;DHT22;460;48.734;9.152;2023-05-02T16:52:09;16.30;65.10
947;DHT22;460;48.734;9.152;2023-05-02T16:54:37;16.10;65.30
947;DHT22;460;48.734;9.152;2023-05-02T16:57:04;16.00;66.70